Time;durP1;ratioP1;P1;durP2;ratioP2;P2;SDS_P1;SDS_P2;PMS_P1;PMS_P2;Temp;Humidity;BMP_temperature;BMP_pressure;BME280_temperature;BME280_humidity;BME280_pressure;Samples;Min_cycle;Max_cycle;Signal;HPM_P1;HPM_P2
2023/08/13 00:01:12;;;;;;;8.77;2.67;;;18.50;41.80;;;;;;5096855;28;20187;-73
2023/08/13 00:03:38;;;;;;;6.35;2.70;;;18.50;43.80;;;;;;5096441;28;20203;-74
2023/08/13 00:06:03;;;;;;;8.57;3.20;;;18.40;43.80;;;;;;5096839;28;20161;-74
2023/08/13 00:08:29;;;;;;;6.70;3.42;;;18.40;46.20;;;;;;5096792;28;20250;-73
2023/08/13 00:10:55;;;;;;;8.50;3.00;;;18.40;46.60;;;;;;5096699;28;20616;-74
2023/08/13 00:13:20;;;;;;;11.88;3.40;;;18.40;47.50;;;;;;5096763;28;20179;-73
2023/08/13 00:15:46;;;;;;;6.63;2.97;;;18.30;48.50;;;;;;5096511;28;20523;-74
2023/08/13 00:18:11;;;;;;;10.73;3.33;;;18.30;49.10;;;;;;5096341;28;20243;-74
2023/08/13 00:20:37;;;;;;;11.00;3.10;;;18.40;49.60;;;;;;5096552;28;20251;-74
2023/08/13 00:23:03;;;;;;;7.88;2.65;;;18.40;50.80;;;;;;5096420;28;20247;-72
2023/08/13 00:25:29;;;;;;;8.65;2.95;;;18.40;50.00;;;;;;5095163;28;20723;-74
2023/08/13 00:27:54;;;;;;;8.65;2.65;;;18.40;50.50;;;;;;5096433;28;20168;-73
2023/08/13 00:30:20;;;;;;;6.40;2.60;;;18.40;50.00;;;;;;5096332;28;20171;-72
2023/08/13 00:32:46;;;;;;;8.13;3.03;;;18.30;51.90;;;;;;5095906;28;20635;-73
2023/08/13 00:35:11;;;;;;;8.68;3.05;;;18.40;52.50;;;;;;5096170;28;20620;-73
2023/08/13 00:37:37;;;;;;;7.03;3.08;;;18.30;53.70;;;;;;5096331;28;20207;-73
2023/08/13 00:40:04;;;;;;;9.32;3.10;;;18.30;53.90;;;;;;5096005;28;20520;-73
2023/08/13 00:42:29;;;;;;;9.45;2.83;;;18.40;54.10;;;;;;5096292;28;20172;-73
2023/08/13 00:44:55;;;;;;;7.60;3.05;;;18.40;52.90;;;;;;5096141;28;20168;-73
2023/08/13 00:47:21;;;;;;;6.82;2.67;;;18.30;54.10;;;;;;5095705;28;20526;-74
2023/08/13 00:49:49;;;;;;;6.38;2.60;;;18.30;55.40;;;;;;5095331;28;20178;-74
2023/08/13 00:52:15;;;;;;;6.93;2.78;;;18.30;56.00;;;;;;5095935;28;20164;-74
2023/08/13 00:54:41;;;;;;;8.02;2.78;;;18.30;56.10;;;;;;5095785;28;20209;-73
2023/08/13 00:57:07;;;;;;;10.40;2.72;;;18.30;56.10;;;;;;5095806;28;20685;-74
2023/08/13 00:59:34;;;;;;;8.40;3.22;;;18.30;57.10;;;;;;5095800;28;20168;-73
2023/08/13 01:02:00;;;;;;;6.10;2.70;;;18.30;57.70;;;;;;5095656;28;20263;-73
2023/08/13 01:04:25;;;;;;;5.60;2.80;;;18.20;57.80;;;;;;5095676;28;20199;-74
2023/08/13 01:07:20;;;;;;;9.73;3.20;;;18.20;59.40;;;;;;5095650;28;20639;-73
2023/08/13 01:10:13;;;;;;;8.77;2.63;;;18.20;59.10;;;;;;5095588;28;20199;-73
2023/08/13 01:12:52;;;;;;;8.25;3.38;;;18.20;61.60;;;;;;5095668;28;20182;-74
2023/08/13 01:15:21;;;;;;;7.53;2.80;;;18.20;61.90;;;;;;5095142;28;20172;-74
2023/08/13 01:17:52;;;;;;;7.68;2.92;;;18.20;62.50;;;;;;5093743;28;20257;-73
2023/08/13 01:20:18;;;;;;;7.50;3.08;;;18.30;61.50;;;;;;5095406;28;20166;-74
2023/08/13 01:22:48;;;;;;;8.88;2.58;;;18.20;61.80;;;;;;5095453;28;20168;-74
2023/08/13 01:25:14;;;;;;;6.05;3.38;;;18.20;65.20;;;;;;5095249;28;20685;-74
2023/08/13 01:27:49;;;;;;;7.35;3.08;;;18.20;63.60;;;;;;5095166;28;20196;-74
2023/08/13 01:30:44;;;;;;;11.73;2.97;;;18.20;65.40;;;;;;5094891;28;20176;-74
2023/08/13 01:33:13;;;;;;;10.35;3.00;;;18.20;65.30;;;;;;5095296;28;20249;-73
2023/08/13 01:35:41;;;;;;;7.97;3.20;;;18.20;68.80;;;;;;5095261;28;20172;-74
2023/08/13 01:38:08;;;;;;;9.98;3.08;;;18.20;69.10;;;;;;5095008;28;20207;-73
2023/08/13 01:40:33;;;;;;;11.77;3.60;;;18.20;71.60;;;;;;5094870;28;20251;-74
2023/08/13 01:42:59;;;;;;;9.35;2.95;;;18.10;74.80;;;;;;5095126;28;20270;-74
2023/08/13 01:45:24;;;;;;;9.82;3.60;;;18.10;78.70;;;;;;5094472;28;20168;-73
2023/08/13 01:47:50;;;;;;;9.90;3.00;;;18.00;80.40;;;;;;5094946;28;20258;-74
2023/08/13 01:50:16;;;;;;;10.43;3.00;;;18.00;81.60;;;;;;5094731;28;20195;-74
2023/08/13 01:52:41;;;;;;;9.10;2.90;;;18.00;83.40;;;;;;5094836;28;20202;-74
2023/08/13 01:55:07;;;;;;;9.50;3.20;;;18.10;80.80;;;;;;5094574;28;20164;-73
2023/08/13 01:57:33;;;;;;;8.68;3.00;;;18.00;79.40;;;;;;5093292;28;20306;-73
2023/08/13 01:59:59;;;;;;;10.05;3.17;;;18.00;82.70;;;;;;5092955;28;20259;-74
2023/08/13 02:02:24;;;;;;;10.23;3.22;;;18.00;82.70;;;;;;5093810;28;20513;-73
2023/08/13 02:04:50;;;;;;;11.85;3.38;;;18.00;85.30;;;;;;5094488;28;20187;-74
2023/08/13 02:07:15;;;;;;;8.77;2.72;;;18.00;86.30;;;;;;5094648;28;20309;-73
2023/08/13 02:09:41;;;;;;;8.43;3.20;;;17.90;86.40;;;;;;5094289;28;20175;-74
2023/08/13 02:12:07;;;;;;;8.15;3.33;;;17.90;87.10;;;;;;5094337;28;20182;-73
2023/08/13 02:14:32;;;;;;;6.88;3.00;;;17.90;86.80;;;;;;5094158;28;20171;-74
2023/08/13 02:16:59;;;;;;;13.52;3.20;;;17.90;88.70;;;;;;5094210;28;20235;-74
2023/08/13 02:19:25;;;;;;;8.45;3.20;;;17.80;91.70;;;;;;5094410;28;20232;-74
2023/08/13 02:21:50;;;;;;;7.65;2.95;;;17.80;91.10;;;;;;5094486;28;20176;-74
2023/08/13 02:24:16;;;;;;;9.50;3.25;;;17.90;90.40;;;;;;5094164;28;20239;-73
2023/08/13 02:26:42;;;;;;;7.93;3.00;;;17.90;87.80;;;;;;5092816;28;20178;-73
2023/08/13 02:29:07;;;;;;;9.07;3.13;;;17.90;89.40;;;;;;5093863;28;20167;-73
2023/08/13 02:31:33;;;;;;;10.80;3.07;;;17.80;90.70;;;;;;5094163;28;20255;-73
2023/08/13 02:33:58;;;;;;;5.60;2.60;;;17.90;92.90;;;;;;5092787;28;20241;-73
2023/08/13 02:36:24;;;;;;;7.65;3.08;;;17.90;92.20;;;;;;5092618;28;20693;-73
2023/08/13 02:38:50;;;;;;;9.30;3.35;;;17.90;92.00;;;;;;5092724;28;20182;-73
2023/08/13 02:41:15;;;;;;;11.98;3.67;;;17.90;92.50;;;;;;5093795;28;20183;-74
2023/08/13 02:43:52;;;;;;;9.07;3.05;;;17.90;92.20;;;;;;5093482;28;20675;-74
2023/08/13 02:46:22;;;;;;;7.43;2.97;;;17.90;90.90;;;;;;5094124;28;20172;-74
2023/08/13 02:48:48;;;;;;;9.47;3.10;;;17.90;92.40;;;;;;5093978;28;20180;-74
2023/08/13 02:51:14;;;;;;;8.38;3.10;;;17.90;92.10;;;;;;5093517;28;20662;-75
2023/08/13 02:53:43;;;;;;;11.20;3.40;;;17.80;92.50;;;;;;5093602;28;20172;-74
2023/08/13 02:56:09;;;;;;;6.70;2.60;;;17.70;94.80;;;;;;5092342;28;20171;-74
2023/08/13 02:58:35;;;;;;;12.43;3.42;;;17.60;98.80;;;;;;5093273;28;20183;-74
2023/08/13 03:01:00;;;;;;;7.63;3.20;;;17.70;99.00;;;;;;5093626;28;20183;-74
2023/08/13 03:03:26;;;;;;;6.60;3.20;;;17.70;98.90;;;;;;5093417;28;20182;-74
2023/08/13 03:05:52;;;;;;;9.73;3.38;;;17.70;97.80;;;;;;5093204;28;20229;-73
2023/08/13 03:08:17;;;;;;;9.38;3.22;;;17.60;99.90;;;;;;5093617;28;20627;-74
2023/08/13 03:10:43;;;;;;;12.82;3.90;;;17.70;99.60;;;;;;5093456;28;20176;-73
2023/08/13 03:13:09;;;;;;;8.20;3.03;;;17.70;99.30;;;;;;5093040;28;20168;-74
2023/08/13 03:15:34;;;;;;;8.05;3.20;;;17.70;99.90;;;;;;5093068;28;20649;-73
2023/08/13 03:18:00;;;;;;;10.30;3.10;;;17.70;99.90;;;;;;5092975;28;20231;-73
2023/08/13 03:20:26;;;;;;;6.05;3.50;;;17.70;99.90;;;;;;5091872;28;20167;-73
2023/08/13 03:22:51;;;;;;;9.73;3.00;;;17.70;99.10;;;;;;5093352;28;20180;-74
2023/08/13 03:25:17;;;;;;;9.40;3.13;;;17.70;99.90;;;;;;5093359;28;20164;-73
2023/08/13 03:27:43;;;;;;;10.93;3.00;;;17.70;99.90;;;;;;5091890;28;20533;-73
2023/08/13 03:30:09;;;;;;;8.63;2.58;;;17.70;99.90;;;;;;5091890;28;20164;-74
2023/08/13 03:32:36;;;;;;;11.37;2.97;;;17.70;99.80;;;;;;5093051;28;20176;-73
2023/08/13 03:35:01;;;;;;;8.10;2.90;;;17.80;99.60;;;;;;5092814;28;20611;-73
2023/08/13 03:37:27;;;;;;;8.45;2.83;;;17.80;99.90;;;;;;5093450;28;20204;-73
2023/08/13 03:39:52;;;;;;;10.43;3.08;;;17.80;98.30;;;;;;5092843;28;20175;-73
2023/08/13 03:42:18;;;;;;;8.18;3.05;;;17.80;98.20;;;;;;5092976;28;20168;-73
2023/08/13 03:44:44;;;;;;;7.47;2.97;;;17.80;97.60;;;;;;5093052;28;20168;-73
2023/08/13 03:47:09;;;;;;;12.63;2.80;;;17.90;98.30;;;;;;5092811;28;20697;-73
2023/08/13 03:49:35;;;;;;;11.65;2.92;;;17.90;96.90;;;;;;5093126;28;20176;-73
2023/08/13 03:52:00;;;;;;;5.82;2.63;;;18.00;96.60;;;;;;5092925;28;20184;-73
2023/08/13 03:54:26;;;;;;;6.28;2.40;;;18.00;94.80;;;;;;5092373;28;20178;-74
2023/08/13 03:56:52;;;;;;;9.60;2.78;;;18.00;92.50;;;;;;5092992;28;20195;-73
2023/08/13 03:59:18;;;;;;;11.48;3.10;;;18.00;95.00;;;;;;5092836;28;20168;-73
2023/08/13 04:01:43;;;;;;;10.82;3.03;;;18.00;92.60;;;;;;5092981;28;20254;-73
2023/08/13 04:04:09;;;;;;;8.48;2.70;;;18.00;93.30;;;;;;5092606;28;20172;-73
2023/08/13 04:06:35;;;;;;;8.65;3.00;;;18.10;92.80;;;;;;5092882;28;20619;-73
2023/08/13 04:09:00;;;;;;;9.57;2.88;;;18.10;90.10;;;;;;5092661;28;20191;-73
2023/08/13 04:11:27;;;;;;;11.73;3.30;;;18.10;91.50;;;;;;5092780;28;20635;-73
2023/08/13 04:13:53;;;;;;;8.90;3.20;;;18.00;90.90;;;;;;5092526;28;20171;-73
2023/08/13 04:16:18;;;;;;;6.95;2.33;;;18.10;91.10;;;;;;5092299;28;20224;-74
2023/08/13 04:18:44;;;;;;;10.40;3.03;;;18.10;88.40;;;;;;5092745;28;20554;-75
2023/08/13 04:21:10;;;;;;;11.00;2.80;;;18.10;90.80;;;;;;5092565;28;20168;-73
2023/08/13 04:23:35;;;;;;;7.75;2.55;;;18.10;87.20;;;;;;5092464;28;20233;-73
2023/08/13 04:26:01;;;;;;;6.88;2.65;;;18.20;85.00;;;;;;5096192;28;20627;-73
2023/08/13 04:28:26;;;;;;;9.80;2.42;;;18.20;88.20;;;;;;5096444;28;20172;-74
2023/08/13 04:30:52;;;;;;;7.70;2.95;;;18.20;81.10;;;;;;5096346;28;20201;-73
2023/08/13 04:33:18;;;;;;;7.88;2.92;;;18.10;84.80;;;;;;5096144;28;20643;-73
2023/08/13 04:35:43;;;;;;;6.60;2.50;;;18.10;85.00;;;;;;5096106;28;20175;-74
2023/08/13 04:38:09;;;;;;;9.15;3.08;;;18.10;86.00;;;;;;5096286;28;20620;-74
2023/08/13 04:40:34;;;;;;;9.63;2.90;;;18.10;89.30;;;;;;5096068;28;20169;-74
2023/08/13 04:43:00;;;;;;;6.22;2.67;;;18.20;86.20;;;;;;5095984;28;20297;-73
2023/08/13 04:45:26;;;;;;;7.60;2.78;;;18.20;81.80;;;;;;5096005;28;20195;-74
2023/08/13 04:47:51;;;;;;;9.38;2.80;;;18.10;85.50;;;;;;5095827;28;20207;-74
2023/08/13 04:50:17;;;;;;;6.20;2.75;;;18.20;83.70;;;;;;5095523;28;20651;-73
2023/08/13 04:52:43;;;;;;;8.63;2.88;;;18.20;80.20;;;;;;5095588;28;20641;-73
2023/08/13 04:55:09;;;;;;;10.52;3.50;;;18.30;81.20;;;;;;5095420;28;20168;-74
2023/08/13 04:57:35;;;;;;;8.73;2.50;;;18.30;78.90;;;;;;5095685;28;20208;-74
2023/08/13 05:00:01;;;;;;;7.20;2.88;;;18.40;75.60;;;;;;5095713;28;20206;-74
2023/08/13 05:02:27;;;;;;;7.97;2.95;;;18.50;73.70;;;;;;5095522;28;20172;-74
2023/08/13 05:04:53;;;;;;;10.60;3.05;;;18.60;68.60;;;;;;5095263;28;20168;-73
2023/08/13 05:07:19;;;;;;;8.82;3.20;;;18.70;60.60;;;;;;5095531;28;20191;-73
2023/08/13 05:09:45;;;;;;;9.18;2.88;;;18.70;56.60;;;;;;5095514;28;20168;-73
2023/08/13 05:12:10;;;;;;;6.47;2.63;;;18.90;57.50;;;;;;5095272;28;20195;-74
2023/08/13 05:14:36;;;;;;;9.48;2.85;;;19.00;50.60;;;;;;5095224;28;20221;-74
2023/08/13 05:17:01;;;;;;;10.10;3.05;;;19.00;45.80;;;;;;5094865;28;20238;-74
2023/08/13 05:19:27;;;;;;;9.68;2.97;;;19.20;43.40;;;;;;5095256;28;20564;-74
2023/08/13 05:21:53;;;;;;;10.15;3.30;;;19.50;39.30;;;;;;5094788;28;20172;-74
2023/08/13 05:24:18;;;;;;;6.03;2.92;;;20.30;19.10;;;;;;5095442;28;20160;-74
2023/08/13 05:26:44;;;;;;;5.68;2.70;;;20.70;2.80;;;;;;5095178;28;20505;-74
2023/08/13 05:29:09;;;;;;;7.43;3.10;;;20.70;1.00;;;;;;5094982;28;20175;-75
2023/08/13 05:31:35;;;;;;;8.05;3.20;;;20.70;1.00;;;;;;5095165;28;20190;-74
2023/08/13 05:34:01;;;;;;;8.75;2.83;;;20.70;1.00;;;;;;5094485;28;20237;-74
2023/08/13 05:36:26;;;;;;;4.30;2.53;;;20.40;4.00;;;;;;5095110;28;20631;-75
2023/08/13 05:38:52;;;;;;;8.13;3.53;;;20.20;7.60;;;;;;5094617;28;20176;-74
2023/08/13 05:41:18;;;;;;;12.55;3.17;;;20.10;11.50;;;;;;5094824;28;20689;-74
2023/08/13 05:43:44;;;;;;;7.32;3.00;;;20.10;12.20;;;;;;5094872;28;20279;-74
2023/08/13 05:46:09;;;;;;;7.93;2.67;;;20.20;12.00;;;;;;5094703;28;20171;-74
2023/08/13 05:48:35;;;;;;;8.82;3.10;;;20.50;7.60;;;;;;5093312;28;20192;-75
2023/08/13 05:51:01;;;;;;;8.98;2.58;;;21.20;1.00;;;;;;5094234;28;20263;-74
2023/08/13 05:53:26;;;;;;;6.13;2.80;;;21.40;1.00;;;;;;5094804;28;20172;-74
2023/08/13 05:55:53;;;;;;;9.55;3.63;;;21.80;1.00;;;;;;5094524;28;20571;-73
2023/08/13 05:58:18;;;;;;;11.52;3.75;;;22.20;1.00;;;;;;5094255;28;20632;-75
2023/08/13 06:00:44;;;;;;;7.13;3.28;;;21.90;1.00;;;;;;5094512;28;20199;-74
2023/08/13 06:03:10;;;;;;;10.02;3.10;;;21.70;1.00;;;;;;5094439;28;20172;-74
2023/08/13 06:05:38;;;;;;;9.80;3.20;;;21.20;1.00;;;;;;5093939;28;20176;-74
2023/08/13 06:08:04;;;;;;;7.53;3.13;;;21.10;1.00;;;;;;5094621;28;20167;-74
2023/08/13 06:10:30;;;;;;;10.13;3.40;;;20.80;1.00;;;;;;5094175;28;20179;-74
2023/08/13 06:12:55;;;;;;;8.60;3.45;;;20.70;1.00;;;;;;5094049;28;20164;-74
2023/08/13 06:15:21;;;;;;;9.45;3.42;;;20.80;1.00;;;;;;5092823;28;20175;-74
2023/08/13 06:17:48;;;;;;;7.65;2.83;;;20.90;1.00;;;;;;5093718;28;20238;-74
2023/08/13 06:20:15;;;;;;;8.25;3.05;;;20.80;1.00;;;;;;5093937;28;20175;-74
2023/08/13 06:22:41;;;;;;;7.82;3.25;;;20.80;1.00;;;;;;5093671;28;20207;-75
2023/08/13 06:25:06;;;;;;;9.82;2.88;;;20.80;1.00;;;;;;5093931;28;20174;-74
2023/08/13 06:27:32;;;;;;;7.82;2.95;;;20.80;1.00;;;;;;5094060;28;20180;-74
2023/08/13 06:29:58;;;;;;;8.50;3.13;;;20.60;3.50;;;;;;5094136;28;20210;-74
2023/08/13 06:32:23;;;;;;;7.40;3.03;;;20.60;3.50;;;;;;5093892;28;20636;-75
2023/08/13 06:34:49;;;;;;;5.80;2.88;;;20.70;4.00;;;;;;5093546;28;20628;-75
2023/08/13 06:37:14;;;;;;;7.50;3.08;;;20.80;3.40;;;;;;5093855;28;20215;-74
2023/08/13 06:39:40;;;;;;;8.75;3.33;;;20.80;1.00;;;;;;5093604;28;20164;-74
2023/08/13 06:42:06;;;;;;;10.73;2.97;;;20.70;1.00;;;;;;5093801;28;20689;-74
2023/08/13 06:44:32;;;;;;;9.05;2.97;;;20.50;4.10;;;;;;5093518;28;20168;-74
2023/08/13 06:46:57;;;;;;;5.82;2.65;;;20.30;5.90;;;;;;5093283;28;20642;-74
2023/08/13 06:49:23;;;;;;;6.72;2.78;;;20.10;12.80;;;;;;5093355;28;20186;-74
2023/08/13 06:51:48;;;;;;;9.90;2.83;;;20.20;13.60;;;;;;5093658;28;20195;-74
2023/08/13 06:54:14;;;;;;;5.20;2.40;;;20.20;14.10;;;;;;5075283;28;20615;-74
2023/08/13 06:56:40;;;;;;;7.55;3.13;;;20.20;15.50;;;;;;5093540;28;20208;-73
2023/08/13 06:59:06;;;;;;;9.90;3.28;;;20.20;17.20;;;;;;5093013;28;20168;-74
2023/08/13 07:01:31;;;;;;;8.10;3.35;;;20.30;16.10;;;;;;5092077;28;20167;-74
2023/08/13 07:03:57;;;;;;;7.85;2.78;;;20.40;12.00;;;;;;5093259;28;20178;-73
2023/08/13 07:06:24;;;;;;;7.47;3.10;;;20.40;11.50;;;;;;5092856;28;20192;-74
2023/08/13 07:08:51;;;;;;;5.57;3.35;;;20.50;13.80;;;;;;5091873;28;20194;-74
2023/08/13 07:11:17;;;;;;;9.73;3.45;;;20.60;10.40;;;;;;5093146;28;20682;-73
2023/08/13 07:13:42;;;;;;;9.90;3.33;;;20.60;6.50;;;;;;5092653;28;20672;-74
2023/08/13 07:16:10;;;;;;;6.53;3.00;;;20.80;7.00;;;;;;5092677;28;20200;-75
2023/08/13 07:18:36;;;;;;;6.15;2.80;;;21.00;1.00;;;;;;5092803;28;20218;-74
2023/08/13 07:21:03;;;;;;;10.00;3.35;;;21.10;1.00;;;;;;5092982;28;20208;-74
2023/08/13 07:23:29;;;;;;;7.28;2.88;;;21.20;1.00;;;;;;5093029;28;20176;-74
2023/08/13 07:25:55;;;;;;;9.02;2.92;;;21.60;1.00;;;;;;5093190;28;20168;-74
2023/08/13 07:28:21;;;;;;;7.40;2.95;;;21.80;1.00;;;;;;5093034;28;20259;-75
2023/08/13 07:30:47;;;;;;;8.63;3.10;;;21.80;1.00;;;;;;5092602;28;20183;-74
2023/08/13 07:33:13;;;;;;;7.07;3.03;;;21.70;1.00;;;;;;5092806;28;20566;-74
2023/08/13 07:35:40;;;;;;;7.65;2.53;;;21.70;1.00;;;;;;5092849;28;20192;-73
2023/08/13 07:38:05;;;;;;;6.88;2.70;;;21.50;1.00;;;;;;5092953;28;20218;-75
2023/08/13 07:40:33;;;;;;;10.45;3.17;;;21.40;1.00;;;;;;5092957;28;20631;-74
2023/08/13 07:42:59;;;;;;;8.27;2.38;;;21.30;1.00;;;;;;5091541;28;20202;-74
2023/08/13 07:45:26;;;;;;;4.63;2.70;;;21.30;1.00;;;;;;5091501;28;20171;-74
2023/08/13 07:47:52;;;;;;;11.50;3.65;;;21.20;1.00;;;;;;5092566;28;20259;-74
2023/08/13 07:50:18;;;;;;;7.70;2.55;;;21.20;1.00;;;;;;5092406;28;20274;-74
2023/08/13 07:52:44;;;;;;;9.02;2.92;;;21.40;1.00;;;;;;5092789;28;20176;-74
2023/08/13 07:55:10;;;;;;;8.02;2.60;;;21.40;1.00;;;;;;5092837;28;20256;-74
2023/08/13 07:57:36;;;;;;;9.50;2.90;;;21.60;1.00;;;;;;5092625;28;20298;-74
2023/08/13 08:00:05;;;;;;;7.18;2.83;;;21.80;1.00;;;;;;5095059;28;20651;-73
2023/08/13 08:02:31;;;;;;;5.10;2.65;;;21.90;1.00;;;;;;5094847;28;20572;-74
2023/08/13 08:04:56;;;;;;;6.38;2.78;;;22.10;1.00;;;;;;5095145;28;20160;-75
2023/08/13 08:07:22;;;;;;;4.97;2.55;;;22.40;1.00;;;;;;5096222;28;20172;-75
2023/08/13 08:09:48;;;;;;;8.75;2.53;;;22.80;1.00;;;;;;5096411;28;20164;-74
2023/08/13 08:12:13;;;;;;;6.63;2.65;;;22.90;1.00;;;;;;5096474;28;20187;-75
2023/08/13 08:14:39;;;;;;;8.02;2.97;;;23.30;1.00;;;;;;5096313;28;20168;-75
2023/08/13 08:17:07;;;;;;;6.75;2.80;;;23.30;1.00;;;;;;5095798;28;20267;-75
2023/08/13 08:19:32;;;;;;;8.43;3.50;;;23.60;1.00;;;;;;5096349;28;20176;-73
2023/08/13 08:21:58;;;;;;;6.15;2.83;;;23.60;1.00;;;;;;5096161;28;20198;-75
2023/08/13 08:24:25;;;;;;;8.88;3.00;;;24.00;1.00;;;;;;5096339;28;20179;-75
2023/08/13 08:26:51;;;;;;;8.02;3.08;;;24.30;1.00;;;;;;5095911;28;20176;-74
2023/08/13 08:29:17;;;;;;;7.60;3.10;;;24.50;1.00;;;;;;5096302;28;20168;-75
2023/08/13 08:31:42;;;;;;;5.82;2.42;;;25.10;1.00;;;;;;5094660;28;20184;-76
2023/08/13 08:34:08;;;;;;;6.78;2.65;;;25.60;1.00;;;;;;5094861;28;20199;-75
2023/08/13 08:36:34;;;;;;;5.82;2.60;;;26.10;99.30;;;;;;5095762;28;20619;-75
2023/08/13 08:38:59;;;;;;;6.55;2.75;;;25.70;99.00;;;;;;5095831;28;20187;-75
2023/08/13 08:41:27;;;;;;;8.43;2.70;;;25.30;99.90;;;;;;5095591;28;20251;-75
2023/08/13 08:43:54;;;;;;;7.43;2.60;;;25.50;99.90;;;;;;5095405;28;20631;-75
2023/08/13 08:46:20;;;;;;;6.82;2.63;;;26.10;99.10;;;;;;5095443;28;20696;-75
2023/08/13 08:48:46;;;;;;;7.18;3.08;;;26.10;98.30;;;;;;5094379;28;20176;-76
2023/08/13 08:51:12;;;;;;;7.18;2.72;;;26.10;98.40;;;;;;5095500;28;20182;-76
2023/08/13 08:53:39;;;;;;;5.22;2.95;;;26.70;98.00;;;;;;5095957;28;20176;-76
2023/08/13 08:56:05;;;;;;;5.32;2.80;;;27.80;95.80;;;;;;5095145;28;20172;-76
2023/08/13 08:58:31;;;;;;;6.03;2.85;;;28.90;93.70;;;;;;5095481;28;20615;-76
2023/08/13 09:01:00;;;;;;;5.30;2.53;;;29.50;91.20;;;;;;5094910;28;20600;-74
2023/08/13 09:03:27;;;;;;;6.63;2.40;;;29.50;87.10;;;;;;5095317;28;20183;-76
2023/08/13 09:05:52;;;;;;;4.03;2.38;;;30.00;85.40;;;;;;5096013;28;20172;-76
2023/08/13 09:08:19;;;;;;;5.38;2.60;;;30.40;82.20;;;;;;5095958;28;20593;-78
2023/08/13 09:10:45;;;;;;;5.90;2.78;;;31.70;75.20;;;;;;5094835;28;20274;-76
2023/08/13 09:13:11;;;;;;;5.80;2.58;;;32.30;68.80;;;;;;5095423;28;20167;-77
2023/08/13 09:15:44;;;;;;;4.65;2.30;;;32.60;65.30;;;;;;5093503;28;20172;-75
2023/08/13 09:18:10;;;;;;;4.80;2.55;;;31.90;66.90;;;;;;5095239;28;20750;-76
2023/08/13 09:20:48;;;;;;;5.32;2.72;;;31.90;68.10;;;;;;5095445;28;20187;-76
2023/08/13 09:23:23;;;;;;;3.58;2.33;;;33.10;64.60;;;;;;5095125;28;20164;-75
2023/08/13 09:25:54;;;;;;;5.47;2.50;;;33.00;62.00;;;;;;5094853;28;20492;-75
2023/08/13 09:28:20;;;;;;;5.50;2.50;;;33.40;60.50;;;;;;5095095;28;20217;-75
2023/08/13 09:30:46;;;;;;;4.47;2.70;;;33.60;58.60;;;;;;5094677;28;20527;-75
2023/08/13 09:33:14;;;;;;;6.20;2.83;;;33.20;58.60;;;;;;5095103;28;20555;-77
2023/08/13 09:35:41;;;;;;;5.65;2.38;;;34.00;57.30;;;;;;5094726;28;20172;-75
2023/08/13 09:38:06;;;;;;;3.28;2.10;;;34.30;55.40;;;;;;5094921;28;20242;-76
2023/08/13 09:40:32;;;;;;;5.20;2.55;;;34.10;54.10;;;;;;5094758;28;20199;-75
2023/08/13 09:42:59;;;;;;;4.30;2.20;;;33.50;55.00;;;;;;5094597;28;20596;-76
2023/08/13 09:45:28;;;;;;;4.85;2.88;;;33.50;56.20;;;;;;5094612;28;20175;-77
2023/08/13 09:47:55;;;;;;;4.15;2.20;;;32.20;57.50;;;;;;5094812;28;20172;-76
2023/08/13 09:50:24;;;;;;;5.22;2.28;;;32.60;58.60;;;;;;5093997;28;20230;-75
2023/08/13 09:52:53;;;;;;;4.25;2.28;;;32.40;57.80;;;;;;5094902;28;20172;-76
2023/08/13 09:55:23;;;;;;;5.40;2.70;;;32.20;59.00;;;;;;5094270;28;20168;-76
2023/08/13 09:57:51;;;;;;;5.07;2.50;;;32.00;59.90;;;;;;5093542;28;20612;-76
2023/08/13 10:00:16;;;;;;;4.47;2.38;;;31.90;60.10;;;;;;5093812;28;20591;-75
2023/08/13 10:02:43;;;;;;;4.78;2.70;;;31.50;61.30;;;;;;5094150;28;20180;-77
2023/08/13 10:05:09;;;;;;;6.15;2.22;;;32.70;59.80;;;;;;5094445;28;20195;-76
2023/08/13 10:07:36;;;;;;;3.45;1.95;;;33.90;55.90;;;;;;5094280;28;20620;-76
2023/08/13 10:10:03;;;;;;;5.63;3.00;;;32.80;56.10;;;;;;5093679;28;20168;-75
2023/08/13 10:12:30;;;;;;;4.70;2.55;;;31.60;59.30;;;;;;5093951;28;20171;-76
2023/08/13 10:14:57;;;;;;;3.65;2.33;;;30.80;62.20;;;;;;5093865;28;20250;-75
2023/08/13 10:17:26;;;;;;;4.45;2.42;;;30.10;64.40;;;;;;5093197;28;20254;-76
2023/08/13 10:19:55;;;;;;;5.25;2.33;;;29.10;69.00;;;;;;5094053;28;20624;-76
2023/08/13 10:22:38;;;;;;;5.95;2.72;;;29.40;71.10;;;;;;5091791;28;20235;-78
2023/08/13 10:25:07;;;;;;;3.70;2.40;;;30.60;67.70;;;;;;5093719;28;20176;-75
2023/08/13 10:27:41;;;;;;;4.47;2.25;;;31.90;62.10;;;;;;5092373;28;20199;-75
2023/08/13 10:30:10;;;;;;;5.10;2.38;;;30.70;60.30;;;;;;5092754;28;20635;-76
2023/08/13 10:32:57;;;;;;;3.15;2.47;;;29.00;68.20;;;;;;5093853;28;20541;-75
2023/08/13 10:35:34;;;;;;;6.65;2.60;;;28.60;74.70;;;;;;5093372;28;20168;-75
2023/08/13 10:38:02;;;;;;;5.20;2.40;;;28.20;78.10;;;;;;5093142;28;20294;-74
2023/08/13 10:40:28;;;;;;;4.95;2.63;;;27.80;81.40;;;;;;5092861;28;20282;-74
2023/08/13 10:43:01;;;;;;;6.35;2.70;;;27.30;86.50;;;;;;5093373;28;20179;-75
2023/08/13 10:45:32;;;;;;;7.03;2.35;;;27.30;90.10;;;;;;5093335;28;20178;-76
2023/08/13 10:48:00;;;;;;;7.32;2.50;;;27.50;90.30;;;;;;5093367;28;20669;-76
2023/08/13 10:50:32;;;;;;;6.03;2.60;;;28.70;86.00;;;;;;5093276;28;20188;-75
2023/08/13 10:53:02;;;;;;;4.68;2.47;;;28.50;85.00;;;;;;5093198;28;20178;-75
2023/08/13 10:55:30;;;;;;;5.93;2.28;;;28.30;85.20;;;;;;5092770;28;20481;-75
2023/08/13 10:57:56;;;;;;;4.65;2.50;;;27.90;86.60;;;;;;5092797;28;20275;-74
2023/08/13 11:00:24;;;;;;;5.78;2.80;;;27.80;89.80;;;;;;5093529;28;20252;-74
2023/08/13 11:02:57;;;;;;;6.25;2.70;;;27.60;88.30;;;;;;5092767;28;20674;-75
2023/08/13 11:05:22;;;;;;;5.80;3.00;;;27.60;89.10;;;;;;5091644;28;20179;-75
2023/08/13 11:07:49;;;;;;;5.20;2.50;;;28.00;89.00;;;;;;5092172;28;20225;-75
2023/08/13 11:10:19;;;;;;;3.85;2.53;;;27.80;87.50;;;;;;5092606;28;20196;-74
2023/08/13 11:12:49;;;;;;;4.30;2.65;;;27.20;90.20;;;;;;5092771;28;20171;-75
2023/08/13 11:15:15;;;;;;;8.90;3.17;;;26.80;91.30;;;;;;5093155;28;20175;-75
2023/08/13 11:17:46;;;;;;;8.00;2.60;;;27.50;89.30;;;;;;5092794;28;20234;-75
2023/08/13 11:20:21;;;;;;;4.00;2.50;;;28.30;84.60;;;;;;5091549;28;20207;-74
2023/08/13 11:22:47;;;;;;;5.20;2.88;;;28.60;84.00;;;;;;5092802;28;20696;-75
2023/08/13 11:25:16;;;;;;;6.45;3.00;;;29.70;80.30;;;;;;5092608;28;20210;-75
2023/08/13 11:27:41;;;;;;;4.68;2.10;;;30.00;75.90;;;;;;5093082;28;20167;-75
2023/08/13 11:30:08;;;;;;;8.40;2.50;;;30.40;70.20;;;;;;5092737;28;20256;-73
2023/08/13 11:32:38;;;;;;;3.78;2.05;;;30.80;68.40;;;;;;5091529;28;20296;-73
2023/08/13 11:35:09;;;;;;;4.22;2.10;;;29.90;65.60;;;;;;5096923;28;20264;-75
2023/08/13 11:37:36;;;;;;;6.13;2.67;;;29.20;70.10;;;;;;5096762;28;20674;-74
2023/08/13 11:40:05;;;;;;;4.97;2.13;;;28.30;79.70;;;;;;5096302;28;20247;-74
2023/08/13 11:42:31;;;;;;;6.60;2.53;;;28.00;83.00;;;;;;5096960;28;20175;-74
2023/08/13 11:44:57;;;;;;;3.60;2.30;;;27.40;88.60;;;;;;5096714;28;20305;-73
2023/08/13 11:47:27;;;;;;;3.97;2.17;;;27.60;89.80;;;;;;5096580;28;20543;-74
2023/08/13 11:49:54;;;;;;;2.55;1.85;;;28.30;87.10;;;;;;5095682;28;20600;-74
2023/08/13 11:52:21;;;;;;;3.22;1.98;;;28.50;74.50;;;;;;5096490;28;20623;-73
2023/08/13 11:54:47;;;;;;;2.10;1.90;;;29.00;71.70;;;;;;5096157;28;20234;-74
2023/08/13 11:57:15;;;;;;;4.45;1.98;;;29.20;70.90;;;;;;5096243;28;20663;-75
2023/08/13 11:59:41;;;;;;;5.63;2.60;;;29.20;71.30;;;;;;5094688;28;20186;-73
2023/08/13 12:02:07;;;;;;;4.43;2.35;;;29.00;73.10;;;;;;5096804;28;20168;-73
2023/08/13 12:04:34;;;;;;;3.67;1.92;;;28.40;77.70;;;;;;5096431;28;20190;-74
2023/08/13 12:07:02;;;;;;;4.22;2.30;;;28.70;77.00;;;;;;5096210;28;20160;-73
2023/08/13 12:09:27;;;;;;;4.07;1.90;;;28.00;81.40;;;;;;5095860;28;20187;-72
2023/08/13 12:11:54;;;;;;;3.63;2.00;;;28.30;80.80;;;;;;5096174;28;20632;-73
2023/08/13 12:14:20;;;;;;;3.33;1.70;;;28.00;82.70;;;;;;5096113;28;20631;-73
2023/08/13 12:16:45;;;;;;;3.92;1.80;;;27.40;75.80;;;;;;5095907;28;20230;-73
2023/08/13 12:19:11;;;;;;;3.80;1.85;;;27.50;77.40;;;;;;5096404;28;20214;-73
2023/08/13 12:21:37;;;;;;;2.42;1.77;;;27.40;77.00;;;;;;5095868;28;20168;-72
2023/08/13 12:24:04;;;;;;;2.30;1.42;;;27.40;77.40;;;;;;5095762;28;20173;-71
2023/08/13 12:26:31;;;;;;;3.45;1.70;;;27.30;76.10;;;;;;5095683;28;20171;-73
2023/08/13 12:28:57;;;;;;;2.40;1.77;;;27.30;77.70;;;;;;5096234;28;20621;-73
2023/08/13 12:31:24;;;;;;;4.00;1.88;;;27.50;77.70;;;;;;5095892;28;20245;-73
2023/08/13 12:33:50;;;;;;;3.00;1.80;;;27.30;80.50;;;;;;5095868;28;20192;-73
2023/08/13 12:36:16;;;;;;;4.32;1.67;;;27.30;77.90;;;;;;5095809;28;20172;-74
2023/08/13 12:38:42;;;;;;;3.72;1.80;;;27.00;79.70;;;;;;5094998;28;20207;-74
2023/08/13 12:41:08;;;;;;;4.43;2.10;;;27.10;81.20;;;;;;5094311;28;20164;-74
2023/08/13 12:43:36;;;;;;;4.75;1.92;;;27.30;83.30;;;;;;5095579;28;20171;-73
2023/08/13 12:46:03;;;;;;;3.58;1.70;;;27.20;78.00;;;;;;5094906;28;20202;-73